createdAt,value
2017-02-20T00:00:22.168Z,99.99
2017-02-20T00:01:22.185Z,99.99
2017-02-20T00:02:22.203Z,99.99
2017-02-20T00:03:22.214Z,99.99
2017-02-20T00:04:22.240Z,99.99
2017-02-20T00:05:22.254Z,99.99
2017-02-20T00:06:22.282Z,99.99
2017-02-20T00:07:22.299Z,99.99
2017-02-20T00:08:22.304Z,99.99
2017-02-20T00:09:22.334Z,99.99
2017-02-20T00:10:22.358Z,99.99
2017-02-20T00:11:22.362Z,99.99
2017-02-20T00:12:22.386Z,99.99
2017-02-20T00:13:22.398Z,99.99
2017-02-20T00:14:22.419Z,99.99
2017-02-20T00:16:22.451Z,99.99
2017-02-20T00:17:22.097Z,99.99
2017-02-20T00:18:22.101Z,99.99
2017-02-20T00:19:22.123Z,99.99
2017-02-20T00:20:22.533Z,99.99
2017-02-20T00:21:22.545Z,99.99
2017-02-20T00:22:22.175Z,99.99
2017-02-20T00:23:22.592Z,99.99
2017-02-20T00:24:22.221Z,99.99
2017-02-20T00:25:22.620Z,99.99
2017-02-20T00:26:37.157Z,99.99
2017-02-20T00:27:22.656Z,99.99
2017-02-20T00:28:22.680Z,99.99
2017-02-20T00:29:22.692Z,99.99
2017-02-20T00:30:22.669Z,99.99
2017-02-20T00:31:22.733Z,99.99
2017-02-20T00:32:22.746Z,99.99
2017-02-20T00:33:22.799Z,99.99
2017-02-20T00:34:22.798Z,99.99
2017-02-20T00:35:22.803Z,99.99
2017-02-20T00:36:22.826Z,99.99
2017-02-20T00:37:22.841Z,99.99
2017-02-20T00:39:22.875Z,99.99
2017-02-20T00:40:22.899Z,99.99
2017-02-20T00:41:22.912Z,99.99
2017-02-20T00:42:37.448Z,99.99
2017-02-20T00:43:22.952Z,99.99
2017-02-20T00:44:22.966Z,99.99
2017-02-20T00:45:22.994Z,99.99
2017-02-20T00:46:23.011Z,99.99
2017-02-20T00:47:23.041Z,99.99
2017-02-20T00:48:23.043Z,99.99
2017-02-20T00:49:23.058Z,99.99
2017-02-20T00:50:23.081Z,99.99
2017-02-20T00:51:23.110Z,99.99
2017-02-20T00:52:23.114Z,99.99
2017-02-20T00:53:23.134Z,99.99
2017-02-20T00:54:23.164Z,99.99
2017-02-20T00:55:23.173Z,99.99
2017-02-20T00:56:23.197Z,99.99
2017-02-20T00:57:23.214Z,99.99
2017-02-20T00:58:37.745Z,99.99
2017-02-20T00:59:23.254Z,99.99
2017-02-20T01:00:23.271Z,99.99
2017-02-20T01:01:23.283Z,99.99
2017-02-20T01:02:23.306Z,99.99
2017-02-20T01:03:23.340Z,99.99
2017-02-20T01:04:23.343Z,99.99
2017-02-20T01:05:23.370Z,99.99
2017-02-20T01:06:23.380Z,99.99
2017-02-20T01:07:23.401Z,99.99
2017-02-20T01:08:23.408Z,99.99
2017-02-20T01:09:23.436Z,99.99
2017-02-20T01:10:23.460Z,99.99
2017-02-20T01:11:23.483Z,99.99
2017-02-20T01:12:23.499Z,99.99
2017-02-20T01:13:23.505Z,99.99
2017-02-20T01:14:38.041Z,99.99
2017-02-20T01:15:23.541Z,99.99
2017-02-20T01:16:23.562Z,99.99
2017-02-20T01:17:23.590Z,99.99
2017-02-20T01:18:23.593Z,99.99
2017-02-20T01:19:23.617Z,99.99
2017-02-20T01:20:23.633Z,99.99
2017-02-20T01:21:23.657Z,99.99
2017-02-20T01:22:23.668Z,99.99
2017-02-20T01:23:23.695Z,99.99
2017-02-20T01:24:23.711Z,99.99
2017-02-20T01:25:23.723Z,99.99
2017-02-20T01:26:23.753Z,99.99
2017-02-20T01:27:23.763Z,99.99
2017-02-20T01:28:23.796Z,99.99
2017-02-20T01:29:38.320Z,99.99
2017-02-20T01:30:23.830Z,99.99
2017-02-20T01:31:23.837Z,99.99
2017-02-20T01:32:23.870Z,99.99
2017-02-20T01:33:23.882Z,99.99
2017-02-20T01:34:23.912Z,99.99
2017-02-20T01:35:23.933Z,99.99
2017-02-20T01:36:23.939Z,99.99
2017-02-20T01:37:23.956Z,99.99
2017-02-20T01:38:23.964Z,99.99
2017-02-20T01:39:23.994Z,99.99
2017-02-20T01:40:24.006Z,99.99
2017-02-20T01:42:23.655Z,99.99
2017-02-20T01:43:24.075Z,99.99
2017-02-20T01:44:24.086Z,99.99
2017-02-20T01:45:24.119Z,99.99
2017-02-20T01:46:24.111Z,99.99
2017-02-20T01:47:24.134Z,99.99
2017-02-20T01:48:24.157Z,99.99
2017-02-20T01:49:24.176Z,99.99
2017-02-20T01:50:24.186Z,99.99
2017-02-20T01:51:24.204Z,99.99
2017-02-20T01:52:24.220Z,99.99
2017-02-20T01:54:24.266Z,99.99
2017-02-20T01:55:24.293Z,99.99
2017-02-20T01:57:24.317Z,99.99
2017-02-20T01:58:24.339Z,99.99
2017-02-20T01:59:23.961Z,99.99
2017-02-20T02:00:24.373Z,99.99
2017-02-20T02:01:38.906Z,99.99
2017-02-20T02:02:24.427Z,99.99
2017-02-20T02:04:24.458Z,99.99
2017-02-20T02:05:24.460Z,99.99
2017-02-20T02:06:24.493Z,99.99
2017-02-20T02:08:24.527Z,99.99
2017-02-20T02:09:24.535Z,99.99
2017-02-20T02:10:24.567Z,99.99
2017-02-20T02:11:24.584Z,99.99
2017-02-20T02:12:24.591Z,99.99
2017-02-20T02:13:24.616Z,99.99
2017-02-20T02:14:24.634Z,99.99
2017-02-20T02:15:24.653Z,99.99
2017-02-20T02:16:24.674Z,99.99
2017-02-20T02:17:39.205Z,99.99
2017-02-20T02:18:24.716Z,99.99
2017-02-20T02:19:24.722Z,99.99
2017-02-20T02:20:24.740Z,99.99
2017-02-20T02:21:24.766Z,99.99
2017-02-20T02:22:24.776Z,99.99
2017-02-20T02:23:24.817Z,99.99
2017-02-20T02:24:24.822Z,99.99
2017-02-20T02:25:24.839Z,99.99
2017-02-20T02:26:24.860Z,99.99
2017-02-20T02:27:24.871Z,99.99
2017-02-20T02:28:24.885Z,99.99
2017-02-20T02:29:24.917Z,99.99
2017-02-20T02:30:24.936Z,99.99
2017-02-20T02:31:24.946Z,99.99
2017-02-20T02:32:24.972Z,99.99
2017-02-20T02:33:39.496Z,99.99
2017-02-20T02:34:25.010Z,99.99
2017-02-20T02:35:25.024Z,99.99
2017-02-20T02:36:25.034Z,99.99
2017-02-20T02:37:25.049Z,99.99
2017-02-20T02:38:24.684Z,99.99
2017-02-20T02:39:25.089Z,99.99
2017-02-20T02:40:24.720Z,99.99
2017-02-20T02:41:25.131Z,99.99
2017-02-20T02:42:24.762Z,99.99
2017-02-20T02:43:25.170Z,99.99
2017-02-20T02:44:25.193Z,99.99
2017-02-20T02:45:24.819Z,99.99
2017-02-20T02:46:25.225Z,99.99
2017-02-20T02:47:25.250Z,99.99
2017-02-20T02:48:25.261Z,99.99
2017-02-20T02:49:39.791Z,99.99
2017-02-20T02:50:25.292Z,99.99
2017-02-20T02:51:25.324Z,99.99
2017-02-20T02:52:25.343Z,99.99
2017-02-20T02:53:25.351Z,99.99
2017-02-20T02:55:25.384Z,99.99
2017-02-20T02:56:25.404Z,99.99
2017-02-20T02:57:25.421Z,99.99
2017-02-20T02:58:25.448Z,99.99
2017-02-20T02:59:25.463Z,99.99
2017-02-20T03:00:25.489Z,99.99
2017-02-20T03:01:25.498Z,99.99
2017-02-20T03:02:25.512Z,99.99
2017-02-20T03:03:25.539Z,99.99
2017-02-20T03:04:40.071Z,99.99
2017-02-20T03:05:25.569Z,99.99
2017-02-20T03:06:25.595Z,99.99
2017-02-20T03:08:25.633Z,99.99
2017-02-20T03:09:25.953Z,99.99
2017-02-20T03:10:25.671Z,99.99
2017-02-20T03:11:25.695Z,99.99
2017-02-20T03:12:25.711Z,99.99
2017-02-20T03:13:25.747Z,99.99
2017-02-20T03:14:25.743Z,99.99
2017-02-20T03:15:25.771Z,99.99
2017-02-20T03:17:25.805Z,99.99
2017-02-20T03:18:25.813Z,99.99
2017-02-20T03:19:25.835Z,99.99
2017-02-20T03:20:25.879Z,99.99
2017-02-20T03:21:25.869Z,99.99
2017-02-20T03:22:25.890Z,99.99
2017-02-20T03:23:25.900Z,99.99
2017-02-20T03:24:26.255Z,99.99
2017-02-20T03:25:25.937Z,99.99
2017-02-20T03:26:25.969Z,99.99
2017-02-20T03:27:25.984Z,99.99
2017-02-20T03:28:26.002Z,99.99
2017-02-20T03:29:26.013Z,99.99
2017-02-20T03:30:26.042Z,99.99
2017-02-20T03:31:26.066Z,99.99
2017-02-20T03:32:26.072Z,99.99
2017-02-20T03:33:26.091Z,99.99
2017-02-20T03:34:26.105Z,99.99
2017-02-20T03:35:26.129Z,99.99
2017-02-20T03:36:40.661Z,99.99
2017-02-20T03:37:26.157Z,99.99
2017-02-20T03:38:26.183Z,99.99
2017-02-20T03:39:26.195Z,99.99
2017-02-20T03:40:26.214Z,99.99
2017-02-20T03:41:25.850Z,99.99
2017-02-20T03:42:26.265Z,99.99
2017-02-20T03:43:26.268Z,99.99
2017-02-20T03:44:25.908Z,99.99
2017-02-20T03:45:26.315Z,99.99
2017-02-20T03:46:26.333Z,99.99
2017-02-20T03:47:26.352Z,99.99
2017-02-20T03:48:26.369Z,99.99
2017-02-20T03:49:26.401Z,99.99
2017-02-20T03:50:26.406Z,99.99
2017-02-20T03:51:26.415Z,99.99
2017-02-20T03:52:40.956Z,99.99
2017-02-20T03:53:26.082Z,99.99
2017-02-20T03:54:26.091Z,99.99
2017-02-20T03:56:26.119Z,99.99
2017-02-20T03:57:26.528Z,99.99
2017-02-20T03:58:26.553Z,99.99
2017-02-20T03:59:26.573Z,99.99
2017-02-20T04:00:26.587Z,99.99
2017-02-20T04:01:26.626Z,99.99
2017-02-20T04:02:26.619Z,99.99
2017-02-20T04:03:26.653Z,99.99
2017-02-20T04:04:26.673Z,99.99
2017-02-20T04:05:26.684Z,99.99
2017-02-20T04:06:26.703Z,99.99
2017-02-20T04:07:26.723Z,99.99
2017-02-20T04:08:41.248Z,99.99
2017-02-20T04:09:26.748Z,99.99
2017-02-20T04:10:26.776Z,99.99
2017-02-20T04:11:26.788Z,99.99
2017-02-20T04:12:26.811Z,99.99
2017-02-20T04:13:26.822Z,99.99
2017-02-20T04:15:26.873Z,99.99
2017-02-20T04:16:26.891Z,99.99
2017-02-20T04:17:26.899Z,99.99
2017-02-20T04:18:26.920Z,99.99
2017-02-20T04:19:26.933Z,99.99
2017-02-20T04:20:26.961Z,99.99
2017-02-20T04:21:26.975Z,99.99
2017-02-20T04:22:26.995Z,99.99
2017-02-20T04:23:27.013Z,99.99
2017-02-20T04:24:41.547Z,99.99
2017-02-20T04:25:27.063Z,99.99
2017-02-20T04:26:27.063Z,99.99
2017-02-20T04:27:27.085Z,99.99
2017-02-20T04:28:27.111Z,99.99
2017-02-20T04:29:27.126Z,99.99
2017-02-20T04:30:27.148Z,99.99
2017-02-20T04:31:27.161Z,99.99
2017-02-20T04:32:27.184Z,99.99
2017-02-20T04:33:27.193Z,99.99
2017-02-20T04:34:27.217Z,99.99
2017-02-20T04:35:27.287Z,99.99
2017-02-20T04:36:27.252Z,99.99
2017-02-20T04:37:27.269Z,99.99
2017-02-20T04:38:27.290Z,99.99
2017-02-20T04:39:41.823Z,99.99
2017-02-20T04:40:27.331Z,99.99
2017-02-20T04:41:27.354Z,99.99
2017-02-20T04:42:27.361Z,99.99
2017-02-20T04:43:27.380Z,99.99
2017-02-20T04:44:27.396Z,99.99
2017-02-20T04:45:27.417Z,99.99
2017-02-20T04:46:27.433Z,99.99
2017-02-20T04:47:27.459Z,99.99
2017-02-20T04:48:27.478Z,99.99
2017-02-20T04:49:27.505Z,99.99
2017-02-20T04:50:27.119Z,99.99
2017-02-20T04:51:27.139Z,99.99
2017-02-20T04:52:27.564Z,99.99
2017-02-20T04:53:27.565Z,99.99
2017-02-20T04:54:27.603Z,99.99
2017-02-20T04:55:27.614Z,99.99
2017-02-20T04:56:27.619Z,99.99
2017-02-20T04:57:27.646Z,99.99
2017-02-20T04:58:27.664Z,99.99
2017-02-20T04:59:27.684Z,99.99
2017-02-20T05:00:27.700Z,99.99
2017-02-20T05:01:27.721Z,99.99
2017-02-20T05:02:27.737Z,99.99
2017-02-20T05:03:27.754Z,99.99
2017-02-20T05:04:27.778Z,99.99
2017-02-20T05:05:27.787Z,99.99
2017-02-20T05:06:27.804Z,99.99
2017-02-20T05:07:27.834Z,99.99
2017-02-20T05:08:27.874Z,99.99
2017-02-20T05:09:27.869Z,99.99
2017-02-20T05:10:27.897Z,99.99
2017-02-20T05:11:42.415Z,99.99
2017-02-20T05:12:27.918Z,99.99
2017-02-20T05:15:27.975Z,99.99
2017-02-20T05:17:28.005Z,99.99
2017-02-20T05:18:28.031Z,99.99
2017-02-20T05:19:28.050Z,99.99
2017-02-20T05:20:28.077Z,99.99
2017-02-20T05:21:28.085Z,99.99
2017-02-20T05:23:28.125Z,99.99
2017-02-20T05:24:28.157Z,99.99
2017-02-20T05:25:28.195Z,99.99
2017-02-20T05:26:28.181Z,99.99
2017-02-20T05:27:42.714Z,99.99
2017-02-20T05:28:28.209Z,99.99
2017-02-20T05:30:28.264Z,99.99
2017-02-20T05:31:28.274Z,99.99
2017-02-20T05:32:28.286Z,99.99
2017-02-20T05:33:28.311Z,99.99
2017-02-20T05:34:28.323Z,99.99
2017-02-20T05:35:28.351Z,99.99
2017-02-20T05:36:28.367Z,99.99
2017-02-20T05:37:28.377Z,99.99
2017-02-20T05:38:28.411Z,99.99
2017-02-20T05:39:28.416Z,99.99
2017-02-20T05:40:28.046Z,99.99
2017-02-20T05:41:28.495Z,99.99
2017-02-20T05:42:28.475Z,99.99
2017-02-20T05:43:43.036Z,99.99
2017-02-20T05:44:28.515Z,99.99
2017-02-20T05:45:28.522Z,99.99
2017-02-20T05:46:28.548Z,99.99
2017-02-20T05:48:28.598Z,99.99
2017-02-20T05:49:28.600Z,99.99
2017-02-20T05:50:28.241Z,99.99
2017-02-20T05:51:28.643Z,99.99
2017-02-20T05:52:28.679Z,99.99
2017-02-20T05:53:28.682Z,99.99
2017-02-20T05:54:28.692Z,99.99
2017-02-20T05:55:28.712Z,99.99
2017-02-20T05:56:28.728Z,99.99
2017-02-20T05:57:28.769Z,99.99
2017-02-20T05:58:28.775Z,99.99
2017-02-20T05:59:43.305Z,99.99
2017-02-20T06:00:28.817Z,99.99
2017-02-20T06:02:28.849Z,99.99
2017-02-20T06:03:28.857Z,99.99
2017-02-20T06:04:28.889Z,99.99
2017-02-20T06:05:28.903Z,99.99
2017-02-20T06:06:28.920Z,99.99
2017-02-20T06:07:28.932Z,99.99
2017-02-20T06:08:29.259Z,99.99
2017-02-20T06:09:28.977Z,99.99
2017-02-20T06:11:29.013Z,99.99
2017-02-20T06:12:29.032Z,99.99
2017-02-20T06:13:29.046Z,99.99
2017-02-20T06:14:43.580Z,99.99
2017-02-20T06:15:29.082Z,99.99
2017-02-20T06:16:29.106Z,99.99
2017-02-20T06:17:29.134Z,99.99
2017-02-20T06:19:29.152Z,99.99
2017-02-20T06:20:28.789Z,99.99
2017-02-20T06:21:29.200Z,99.99
2017-02-20T06:22:29.210Z,99.99
2017-02-20T06:23:29.233Z,99.99
2017-02-20T06:24:29.255Z,99.99
2017-02-20T06:25:29.263Z,99.99
2017-02-20T06:26:28.911Z,99.99
2017-02-20T06:27:29.309Z,99.99
2017-02-20T06:28:29.321Z,99.99
2017-02-20T06:29:29.349Z,99.99
2017-02-20T06:30:29.368Z,99.99
2017-02-20T06:31:29.374Z,99.99
2017-02-20T06:32:29.392Z,99.99
2017-02-20T06:33:29.425Z,99.99
2017-02-20T06:34:29.441Z,99.99
2017-02-20T06:35:29.461Z,99.99
2017-02-20T06:36:29.491Z,99.99
2017-02-20T06:37:29.496Z,99.99
2017-02-20T06:38:29.533Z,99.99
2017-02-20T06:39:29.536Z,99.99
2017-02-20T06:42:29.584Z,99.99
2017-02-20T06:43:29.618Z,99.99
2017-02-20T06:44:29.628Z,99.99
2017-02-20T06:45:29.644Z,99.99
2017-02-20T06:46:44.171Z,99.99
2017-02-20T06:47:29.683Z,99.99
2017-02-20T06:48:29.692Z,99.99
2017-02-20T06:49:29.714Z,99.99
2017-02-20T06:50:29.736Z,99.99
2017-02-20T06:51:29.754Z,99.99
2017-02-20T06:52:29.773Z,99.99
2017-02-20T06:53:29.798Z,99.99
2017-02-20T06:54:29.809Z,99.99
2017-02-20T06:55:29.819Z,99.99
2017-02-20T06:56:29.847Z,99.99
2017-02-20T06:57:29.864Z,99.99
2017-02-20T06:58:29.876Z,99.99
2017-02-20T06:59:29.905Z,99.99
2017-02-20T07:00:29.922Z,99.99
2017-02-20T07:01:29.955Z,99.99
2017-02-20T07:02:44.468Z,99.99
2017-02-20T07:03:29.975Z,99.99
2017-02-20T07:04:30.003Z,99.99
2017-02-20T07:05:30.006Z,99.99
2017-02-20T07:06:30.024Z,99.99
2017-02-20T07:07:30.045Z,99.99
2017-02-20T07:08:30.063Z,99.99
2017-02-20T07:09:30.092Z,99.99
2017-02-20T07:10:30.126Z,99.99
2017-02-20T07:11:30.127Z,99.99
2017-02-20T07:12:30.135Z,99.99
2017-02-20T07:13:30.162Z,99.99
2017-02-20T07:14:30.184Z,99.99
2017-02-20T07:15:30.191Z,99.99
2017-02-20T07:16:30.221Z,99.99
2017-02-20T07:17:30.240Z,99.99
2017-02-20T07:18:44.768Z,99.99
2017-02-20T07:19:30.264Z,99.99
2017-02-20T07:20:30.297Z,99.99
2017-02-20T07:21:30.363Z,99.99
2017-02-20T07:22:30.323Z,99.99
2017-02-20T07:23:30.341Z,99.99
2017-02-20T07:24:30.360Z,99.99
2017-02-20T07:25:30.387Z,99.99
2017-02-20T07:26:30.398Z,99.99
2017-02-20T07:27:30.431Z,99.99
2017-02-20T07:28:30.436Z,99.99
2017-02-20T07:29:30.459Z,99.99
2017-02-20T07:31:30.491Z,99.99
2017-02-20T07:32:30.515Z,99.99
2017-02-20T07:33:30.525Z,99.99
2017-02-20T07:34:45.066Z,99.99
2017-02-20T07:35:30.563Z,99.99
2017-02-20T07:36:30.601Z,99.99
2017-02-20T07:37:30.610Z,99.99
2017-02-20T07:38:30.920Z,99.99
2017-02-20T07:39:30.652Z,99.99
2017-02-20T07:40:30.657Z,99.99
2017-02-20T07:41:30.685Z,99.99
2017-02-20T07:42:30.698Z,99.99
2017-02-20T07:43:30.713Z,99.99
2017-02-20T07:45:30.766Z,99.99
2017-02-20T07:46:30.798Z,99.99
2017-02-20T07:47:30.802Z,99.99
2017-02-20T07:48:30.820Z,99.99
2017-02-20T07:49:45.348Z,99.99
2017-02-20T07:50:30.859Z,99.99
2017-02-20T07:51:30.871Z,99.99
2017-02-20T07:52:30.899Z,99.99
2017-02-20T07:53:30.909Z,99.99
2017-02-20T07:55:30.958Z,99.99
2017-02-20T07:56:30.967Z,99.99
2017-02-20T07:57:30.980Z,99.99
2017-02-20T07:58:30.999Z,99.99
2017-02-20T07:59:31.023Z,99.99
2017-02-20T08:00:31.044Z,99.99
2017-02-20T08:01:31.060Z,99.99
2017-02-20T08:02:31.080Z,99.99
2017-02-20T08:03:31.106Z,99.99
2017-02-20T08:04:31.119Z,99.99
2017-02-20T08:05:31.151Z,99.99
2017-02-20T08:06:31.147Z,99.99
2017-02-20T08:07:31.189Z,99.99
2017-02-20T08:08:31.198Z,99.99
2017-02-20T08:09:31.229Z,99.99
2017-02-20T08:11:31.249Z,99.99
2017-02-20T08:12:31.275Z,99.99
2017-02-20T08:13:31.288Z,99.99
2017-02-20T08:14:31.315Z,99.99
2017-02-20T08:15:31.334Z,99.99
2017-02-20T08:17:31.367Z,99.99
2017-02-20T08:18:31.388Z,99.99
2017-02-20T08:19:31.405Z,99.99
2017-02-20T08:20:31.412Z,99.99
2017-02-20T08:21:45.954Z,99.99
2017-02-20T08:22:31.454Z,99.99
2017-02-20T08:25:31.516Z,99.99
2017-02-20T08:26:31.535Z,99.99
2017-02-20T08:27:31.559Z,99.69
2017-02-20T08:28:31.569Z,99.69
2017-02-20T08:29:31.611Z,99.5
2017-02-20T08:30:31.606Z,99.99
2017-02-20T08:32:31.674Z,99.59
2017-02-20T08:33:31.670Z,99.97
2017-02-20T08:35:31.721Z,99.97
2017-02-20T08:36:31.722Z,99.21
2017-02-20T08:37:46.258Z,99.5
2017-02-20T08:38:31.769Z,99.59
2017-02-20T08:39:31.798Z,99.5
2017-02-20T08:41:31.817Z,99.11
2017-02-20T08:42:31.834Z,99.69
2017-02-20T08:43:31.864Z,98.79
2017-02-20T08:44:31.875Z,99.07
2017-02-20T08:45:31.898Z,98.5
2017-02-20T08:46:31.916Z,98.41
2017-02-20T08:47:31.940Z,97.93
2017-02-20T08:48:31.969Z,98.03
2017-02-20T08:49:31.986Z,98.12
2017-02-20T08:50:31.994Z,98.22
2017-02-20T08:51:32.011Z,97.93
2017-02-20T08:52:32.031Z,97.93
2017-02-20T08:53:46.570Z,98.12
2017-02-20T08:54:32.071Z,97.74
2017-02-20T08:55:32.094Z,98.22
2017-02-20T08:56:32.123Z,98.31
2017-02-20T08:57:32.130Z,98.12
2017-02-20T08:58:32.150Z,98.22
2017-02-20T08:59:32.166Z,97.83
2017-02-20T09:00:32.200Z,98.5
2017-02-20T09:01:32.208Z,98.12
2017-02-20T09:02:32.232Z,97.83
2017-02-20T09:03:32.253Z,97.83
2017-02-20T09:04:32.274Z,97.74
2017-02-20T09:05:32.292Z,98.12
2017-02-20T09:06:32.306Z,98.03
2017-02-20T09:07:32.327Z,98.31
2017-02-20T09:08:32.353Z,98.03
2017-02-20T09:09:46.882Z,98.5
2017-02-20T09:10:32.393Z,98.5
2017-02-20T09:11:32.427Z,98.12
2017-02-20T09:12:32.443Z,97.83
2017-02-20T09:13:32.441Z,97.83
2017-02-20T09:14:32.483Z,97.74
2017-02-20T09:15:32.484Z,96.98
2017-02-20T09:16:32.502Z,97.45
2017-02-20T09:17:32.525Z,97.27
2017-02-20T09:18:32.548Z,96.89
2017-02-20T09:19:32.569Z,96.5
2017-02-20T09:20:32.198Z,96.89
2017-02-20T09:21:32.610Z,96.12
2017-02-20T09:22:32.627Z,96.31
2017-02-20T09:23:32.639Z,96.46
2017-02-20T09:24:47.178Z,95.7
2017-02-20T09:25:32.681Z,96.26
2017-02-20T09:26:32.711Z,95.89
2017-02-20T09:27:32.721Z,95.51
2017-02-20T09:28:32.763Z,95.32
2017-02-20T09:29:32.758Z,94.65
2017-02-20T09:30:32.777Z,94.65
2017-02-20T09:31:32.801Z,94.65
2017-02-20T09:32:32.825Z,94.46
2017-02-20T09:33:32.847Z,94.56
2017-02-20T09:34:32.874Z,94.18
2017-02-20T09:35:32.886Z,94.65
2017-02-20T09:37:32.953Z,94.56
2017-02-20T09:38:32.940Z,94.65
2017-02-20T09:39:32.973Z,94.37
2017-02-20T09:40:32.994Z,94.08
2017-02-20T09:41:33.009Z,93.89
2017-02-20T09:42:33.039Z,94.27
2017-02-20T09:43:33.046Z,94.56
2017-02-20T09:44:33.060Z,93.98
2017-02-20T09:45:33.080Z,94.08
2017-02-20T09:46:33.106Z,94.56
2017-02-20T09:47:33.130Z,93.51
2017-02-20T09:48:33.147Z,93.7
2017-02-20T09:49:33.164Z,93.41
2017-02-20T09:50:33.184Z,93.7
2017-02-20T09:51:33.205Z,93.23
2017-02-20T09:52:33.239Z,93.7
2017-02-20T09:53:33.255Z,93.51
2017-02-20T09:54:33.260Z,93.13
2017-02-20T09:55:33.288Z,92.84
2017-02-20T09:56:47.820Z,92.94
2017-02-20T09:57:33.320Z,93.13
2017-02-20T09:58:33.339Z,92.46
2017-02-20T09:59:33.360Z,92.56
2017-02-20T10:01:33.408Z,92.46
2017-02-20T10:02:33.430Z,91.89
2017-02-20T10:03:33.852Z,92.36
2017-02-20T10:04:33.467Z,91.8
2017-02-20T10:05:33.495Z,92.84
2017-02-20T10:06:33.502Z,92.46
2017-02-20T10:07:33.531Z,91.99
2017-02-20T10:08:33.547Z,91.89
2017-02-20T10:09:33.568Z,91.7
2017-02-20T10:10:33.588Z,91.42
2017-02-20T10:11:33.611Z,91.7
2017-02-20T10:12:48.143Z,91.22
2017-02-20T10:13:33.648Z,91.22
2017-02-20T10:14:33.661Z,91.22
2017-02-20T10:15:33.691Z,91.42
2017-02-20T10:16:33.701Z,90.66
2017-02-20T10:17:33.734Z,90.47
2017-02-20T10:18:33.750Z,91.13
2017-02-20T10:19:33.778Z,90.75
2017-02-20T10:20:33.787Z,90.56
2017-02-20T10:21:33.806Z,90.75
2017-02-20T10:22:33.828Z,90.75
2017-02-20T10:23:33.843Z,90.94
2017-02-20T10:24:33.887Z,90.75
2017-02-20T10:25:33.899Z,90.66
2017-02-20T10:26:33.516Z,90.28
2017-02-20T10:27:33.932Z,90.08
2017-02-20T10:28:48.463Z,90.22
2017-02-20T10:29:33.968Z,90.66
2017-02-20T10:30:33.991Z,89.51
2017-02-20T10:31:34.007Z,89.51
2017-02-20T10:32:34.032Z,89.94
2017-02-20T10:33:34.067Z,89.56
2017-02-20T10:34:34.085Z,89.47
2017-02-20T10:35:34.089Z,88.99
2017-02-20T10:36:34.135Z,88.99
2017-02-20T10:37:34.139Z,88.04
2017-02-20T10:38:34.147Z,88.7
2017-02-20T10:39:34.182Z,88.99
2017-02-20T10:40:34.193Z,88.79
2017-02-20T10:41:34.222Z,88.6
2017-02-20T10:42:34.235Z,88.13
2017-02-20T10:43:34.279Z,87.94
2017-02-20T10:44:48.788Z,87.08
2017-02-20T10:45:33.903Z,86.94
2017-02-20T10:46:34.311Z,86.94
2017-02-20T10:47:34.364Z,86.94
2017-02-20T10:48:34.349Z,86.84
2017-02-20T10:49:34.388Z,86.84
2017-02-20T10:50:34.404Z,86.61
2017-02-20T10:51:34.421Z,86.75
2017-02-20T10:53:34.461Z,86.51
2017-02-20T10:54:34.488Z,86.08
2017-02-20T10:55:34.497Z,86.65
2017-02-20T10:57:34.537Z,86.8
2017-02-20T10:58:34.562Z,87.08
2017-02-20T10:59:49.101Z,86.13
2017-02-20T11:00:34.610Z,86.27
2017-02-20T11:01:34.640Z,86.18
2017-02-20T11:02:34.654Z,86.36
2017-02-20T11:03:34.682Z,86.27
2017-02-20T11:04:34.686Z,85.99
2017-02-20T11:06:34.735Z,84.65
2017-02-20T11:07:34.757Z,84.94
2017-02-20T11:08:34.768Z,85.8
2017-02-20T11:09:34.803Z,85.7
2017-02-20T11:10:34.819Z,85.8
2017-02-20T11:12:34.852Z,85.8
2017-02-20T11:13:34.889Z,85.13
2017-02-20T11:14:34.897Z,84.94
2017-02-20T11:15:34.923Z,86.18
2017-02-20T11:16:34.937Z,85.41
2017-02-20T11:17:34.972Z,85.6
2017-02-20T11:18:34.973Z,85.99
2017-02-20T11:19:34.998Z,85.99
2017-02-20T11:20:35.027Z,85.99
2017-02-20T11:21:35.044Z,85.22
2017-02-20T11:22:35.069Z,85.51
2017-02-20T11:23:35.099Z,85.03
2017-02-20T11:24:35.099Z,85.13
2017-02-20T11:25:34.743Z,84.65
2017-02-20T11:26:35.146Z,84.79
2017-02-20T11:27:35.165Z,83.89
2017-02-20T11:28:35.193Z,83.61
2017-02-20T11:29:35.204Z,84.17
2017-02-20T11:30:35.224Z,84.79
2017-02-20T11:31:49.765Z,83.55
2017-02-20T11:32:35.278Z,83.65
2017-02-20T11:33:35.298Z,83.45
2017-02-20T11:34:35.329Z,83.55
2017-02-20T11:35:35.336Z,83.65
2017-02-20T11:36:35.363Z,84.22
2017-02-20T11:37:35.388Z,83.45
2017-02-20T11:38:35.395Z,82.6
2017-02-20T11:39:35.426Z,83.55
2017-02-20T11:40:35.450Z,83.55
2017-02-20T11:41:35.467Z,84.46
2017-02-20T11:42:35.496Z,84.12
2017-02-20T11:43:35.510Z,84.88
2017-02-20T11:44:35.527Z,84.31
2017-02-20T11:45:35.553Z,85.03
2017-02-20T11:46:35.186Z,85.51
2017-02-20T11:47:50.108Z,85.6
2017-02-20T11:48:35.611Z,86.65
2017-02-20T11:50:35.657Z,87.51
2017-02-20T11:51:35.687Z,87.89
2017-02-20T11:52:35.697Z,88.65
2017-02-20T11:53:35.712Z,89.03
2017-02-20T11:54:35.749Z,88.93
2017-02-20T11:55:35.766Z,89.32
2017-02-20T11:56:35.812Z,89.41
2017-02-20T11:57:35.805Z,89.03
2017-02-20T11:58:35.821Z,89.22
2017-02-20T11:59:35.847Z,89.51
2017-02-20T12:00:35.866Z,90.46
2017-02-20T12:01:35.899Z,90.61
2017-02-20T12:02:35.921Z,91.22
2017-02-20T12:03:50.445Z,91.27
2017-02-20T12:04:35.966Z,91.56
2017-02-20T12:05:35.963Z,90.61
2017-02-20T12:06:35.997Z,90.8
2017-02-20T12:07:36.016Z,91.27
2017-02-20T12:08:36.039Z,91.27
2017-02-20T12:09:36.059Z,90.61
2017-02-20T12:10:36.085Z,91.37
2017-02-20T12:11:36.099Z,91.17
2017-02-20T12:12:36.111Z,91.46
2017-02-20T12:13:36.154Z,91.37
2017-02-20T12:14:36.166Z,92.13
2017-02-20T12:15:36.177Z,92.32
2017-02-20T12:16:36.212Z,92.32
2017-02-20T12:17:36.216Z,92.79
2017-02-20T12:18:36.252Z,91.94
2017-02-20T12:19:50.780Z,91.94
2017-02-20T12:20:36.287Z,92.13
2017-02-20T12:22:36.326Z,92.13
2017-02-20T12:24:36.373Z,91.84
2017-02-20T12:25:36.394Z,91.65
2017-02-20T12:26:36.411Z,92.51
2017-02-20T12:27:36.428Z,92.79
2017-02-20T12:29:36.084Z,91.84
2017-02-20T12:31:36.515Z,92.89
2017-02-20T12:32:36.534Z,93.37
2017-02-20T12:33:36.548Z,92.99
2017-02-20T12:34:51.091Z,92.79
2017-02-20T12:35:36.592Z,92.79
2017-02-20T12:36:36.614Z,92.89
2017-02-20T12:37:36.638Z,93.55
2017-02-20T12:38:36.667Z,93.74
2017-02-20T12:39:36.687Z,93.65
2017-02-20T12:40:36.705Z,92.51
2017-02-20T12:41:36.723Z,92.7
2017-02-20T12:42:36.739Z,92.22
2017-02-20T12:43:36.766Z,92.51
2017-02-20T12:44:36.784Z,93.08
2017-02-20T12:45:36.808Z,93.32
2017-02-20T12:46:36.822Z,92.74
2017-02-20T12:47:36.842Z,93.13
2017-02-20T12:48:36.861Z,92.65
2017-02-20T12:50:36.906Z,93.6
2017-02-20T12:51:36.946Z,93.22
2017-02-20T12:52:36.943Z,93.6
2017-02-20T12:53:36.992Z,93.32
2017-02-20T12:54:37.000Z,93.22
2017-02-20T12:55:37.009Z,93.7
2017-02-20T12:56:37.040Z,92.36
2017-02-20T12:57:37.084Z,93.32
2017-02-20T12:58:36.685Z,93.89
2017-02-20T12:59:36.703Z,93.7
2017-02-20T13:00:37.115Z,94.56
2017-02-20T13:02:36.767Z,94.46
2017-02-20T13:03:36.786Z,94.79
2017-02-20T13:04:36.806Z,94.51
2017-02-20T13:05:37.223Z,94.98
2017-02-20T13:06:51.758Z,95.08
2017-02-20T13:07:36.869Z,95.08
2017-02-20T13:08:37.288Z,95.65
2017-02-20T13:09:37.314Z,95.46
2017-02-20T13:10:36.931Z,95.75
2017-02-20T13:11:37.354Z,95.17
2017-02-20T13:12:37.372Z,95.65
2017-02-20T13:13:37.385Z,96.89
2017-02-20T13:14:37.402Z,96.79
2017-02-20T13:15:37.042Z,96.31
2017-02-20T13:17:37.473Z,96.98
2017-02-20T13:18:37.493Z,96.7
2017-02-20T13:19:37.521Z,96.31
2017-02-20T13:20:37.537Z,96.51
2017-02-20T13:21:37.564Z,96.31
2017-02-20T13:22:52.092Z,95.94
2017-02-20T13:23:37.599Z,95.46
2017-02-20T13:25:37.665Z,95.75
2017-02-20T13:26:37.266Z,96.03
2017-02-20T13:27:37.677Z,94.89
2017-02-20T13:28:38.102Z,95.84
2017-02-20T13:29:37.722Z,95.75
2017-02-20T13:30:37.763Z,95.36
2017-02-20T13:31:37.771Z,95.56
2017-02-20T13:32:37.787Z,94.89
2017-02-20T13:33:37.818Z,94.98
2017-02-20T13:35:37.850Z,96.31
2017-02-20T13:36:37.866Z,95.75
2017-02-20T13:37:37.886Z,96.31
2017-02-20T13:38:52.425Z,96.6
2017-02-20T13:39:37.926Z,96.98
2017-02-20T13:40:37.959Z,96.79
2017-02-20T13:41:37.973Z,96.98
2017-02-20T13:43:38.021Z,97.84